createdAt,value
2023-04-24T00:01:48.349Z,71.49
2023-04-24T00:04:18.082Z,69.54
2023-04-24T00:06:50.600Z,70.29
2023-04-24T00:09:18.140Z,72.27
2023-04-24T00:11:46.504Z,72.50
2023-04-24T00:14:14.048Z,69.36
2023-04-24T00:16:40.797Z,70.08
2023-04-24T00:19:07.821Z,68.84
2023-04-24T00:21:34.626Z,68.26
2023-04-24T00:24:01.164Z,69.27
2023-04-24T00:26:27.696Z,69.52
2023-04-24T00:28:54.132Z,70.21
2023-04-24T00:31:20.951Z,70.16
2023-04-24T00:33:47.648Z,70.75
2023-04-24T00:36:14.720Z,71.16
2023-04-24T00:38:41.520Z,70.36
2023-04-24T00:41:08.348Z,70.80
2023-04-24T00:43:35.368Z,71.03
2023-04-24T00:46:02.882Z,68.14
2023-04-24T00:48:29.620Z,67.84
2023-04-24T00:50:56.287Z,68.40
2023-04-24T00:53:23.056Z,68.72
2023-04-24T00:55:49.836Z,70.38
2023-04-24T00:58:16.674Z,70.93
2023-04-24T01:00:44.084Z,69.00
2023-04-24T01:03:12.105Z,66.42
2023-04-24T01:05:38.547Z,68.56
2023-04-24T01:08:05.355Z,71.58
2023-04-24T01:10:34.056Z,71.13
2023-04-24T01:13:00.991Z,69.08
2023-04-24T01:15:27.820Z,69.09
2023-04-24T01:17:55.531Z,68.12
2023-04-24T01:20:22.762Z,68.24
2023-04-24T01:22:49.627Z,68.46
2023-04-24T01:25:16.209Z,67.77
2023-04-24T01:27:42.909Z,68.49
2023-04-24T01:30:10.147Z,67.93
2023-04-24T01:32:37.588Z,68.83
2023-04-24T01:35:04.538Z,71.37
2023-04-24T01:37:33.123Z,69.02
2023-04-24T01:40:00.161Z,68.22
2023-04-24T01:42:26.810Z,68.63
2023-04-24T01:44:53.708Z,74.54
2023-04-24T01:47:20.632Z,70.10
2023-04-24T01:49:49.056Z,67.86
2023-04-24T01:52:16.160Z,70.31
2023-04-24T01:54:42.722Z,67.63
2023-04-24T01:57:11.164Z,68.72
2023-04-24T01:59:37.706Z,68.66
2023-04-24T02:02:04.625Z,67.37
2023-04-24T02:04:31.036Z,66.30
2023-04-24T02:06:57.779Z,66.34
2023-04-24T02:09:24.532Z,70.64
2023-04-24T02:11:51.249Z,68.68
2023-04-24T02:14:17.666Z,70.35
2023-04-24T02:16:44.976Z,70.32
2023-04-24T02:19:11.688Z,67.58
2023-04-24T02:21:38.618Z,67.36
2023-04-24T02:24:05.250Z,69.30
2023-04-24T02:26:32.683Z,69.05
2023-04-24T02:28:59.236Z,67.51
2023-04-24T02:31:25.696Z,66.07
2023-04-24T02:33:52.218Z,66.68
2023-04-24T02:36:19.104Z,65.66
2023-04-24T02:38:45.625Z,65.95
2023-04-24T02:41:12.198Z,66.60
2023-04-24T02:43:38.721Z,67.62
2023-04-24T02:46:05.887Z,66.10
2023-04-24T02:48:32.669Z,65.76
2023-04-24T02:50:59.227Z,66.82
2023-04-24T02:53:26.401Z,65.89
2023-04-24T02:55:53.134Z,66.11
2023-04-24T02:58:20.944Z,67.34
2023-04-24T03:00:48.315Z,68.67
2023-04-24T03:03:15.155Z,69.31
2023-04-24T03:05:42.073Z,68.41
2023-04-24T03:08:08.738Z,66.92
2023-04-24T03:10:35.605Z,68.13
2023-04-24T03:13:02.652Z,67.38
2023-04-24T03:15:29.232Z,68.01
2023-04-24T03:17:56.863Z,67.38
2023-04-24T03:20:23.968Z,67.86
2023-04-24T03:22:50.781Z,67.64
2023-04-24T03:25:17.187Z,67.42
2023-04-24T03:27:43.728Z,67.29
2023-04-24T03:30:10.383Z,67.34
2023-04-24T03:32:38.329Z,67.19
2023-04-24T03:35:05.229Z,66.92
2023-04-24T03:37:31.987Z,68.62
2023-04-24T03:39:59.255Z,70.14
2023-04-24T03:42:25.710Z,69.44
2023-04-24T03:44:54.671Z,71.46
2023-04-24T03:47:21.321Z,68.64
2023-04-24T03:49:47.809Z,68.47
2023-04-24T03:52:14.601Z,68.43
2023-04-24T03:54:41.756Z,68.80
2023-04-24T03:57:08.252Z,69.04
2023-04-24T03:59:35.152Z,67.28
2023-04-24T04:02:01.740Z,68.14
2023-04-24T04:04:28.474Z,68.35
2023-04-24T04:06:55.400Z,66.76
2023-04-24T04:09:22.176Z,67.48
2023-04-24T04:11:49.274Z,69.40
2023-04-24T04:14:15.881Z,68.31
2023-04-24T04:16:44.665Z,69.24
2023-04-24T04:19:12.132Z,67.69
2023-04-24T04:21:38.650Z,67.05
2023-04-24T04:24:06.475Z,64.58
2023-04-24T04:26:36.668Z,66.11
2023-04-24T04:29:04.168Z,67.76
2023-04-24T04:31:31.785Z,66.71
2023-04-24T04:33:59.847Z,67.44
2023-04-24T04:36:26.912Z,66.91
2023-04-24T04:38:55.680Z,68.21
2023-04-24T04:41:22.612Z,66.31
2023-04-24T04:43:52.000Z,64.97
2023-04-24T04:46:19.021Z,65.45
2023-04-24T04:48:47.038Z,66.17
2023-04-24T04:51:14.359Z,65.67
2023-04-24T04:53:41.208Z,65.13
2023-04-24T04:56:08.930Z,64.00
2023-04-24T04:58:35.392Z,64.27
2023-04-24T05:01:02.091Z,63.08
2023-04-24T05:03:29.006Z,64.33
2023-04-24T05:05:55.855Z,63.61
2023-04-24T05:10:52.842Z,62.23
2023-04-24T05:13:28.379Z,60.74
2023-04-24T05:15:58.868Z,63.22
2023-04-24T05:18:26.523Z,60.83
2023-04-24T05:20:52.979Z,60.41
2023-04-24T05:23:19.576Z,58.70
2023-04-24T05:25:48.002Z,59.20
2023-04-24T05:28:14.405Z,58.45
2023-04-24T05:30:41.304Z,57.62
2023-04-24T05:33:08.233Z,57.66
2023-04-24T05:35:39.858Z,57.43
2023-04-24T05:38:06.804Z,56.96
2023-04-24T05:40:33.530Z,57.66
2023-04-24T05:42:59.863Z,56.55
2023-04-24T05:45:26.445Z,56.34
2023-04-24T05:47:53.737Z,55.06
2023-04-24T05:50:21.131Z,55.57
2023-04-24T05:52:48.629Z,57.04
2023-04-24T05:55:18.910Z,55.91
2023-04-24T05:57:47.065Z,55.31
2023-04-24T06:00:14.086Z,56.38
2023-04-24T06:02:40.930Z,54.21
2023-04-24T06:05:09.296Z,54.16
2023-04-24T06:07:36.127Z,53.69
2023-04-24T06:10:02.447Z,53.91
2023-04-24T06:12:30.425Z,52.62
2023-04-24T06:14:57.246Z,52.82
2023-04-24T06:17:24.278Z,51.85
2023-04-24T06:19:51.991Z,52.39
2023-04-24T06:22:18.808Z,52.38
2023-04-24T06:24:45.833Z,52.48
2023-04-24T06:27:14.004Z,51.18
2023-04-24T06:29:42.245Z,51.33
2023-04-24T06:32:09.198Z,51.57
2023-04-24T06:34:36.818Z,50.58
2023-04-24T06:37:03.572Z,50.26
2023-04-24T06:39:30.240Z,49.90
2023-04-24T06:41:57.026Z,50.09
2023-04-24T06:44:23.683Z,49.53
2023-04-24T06:46:50.370Z,49.59
2023-04-24T06:49:17.049Z,49.81
2023-04-24T06:51:44.216Z,50.14
2023-04-24T06:54:11.263Z,49.79
2023-04-24T06:56:38.681Z,49.04
2023-04-24T06:59:05.214Z,48.96
2023-04-24T07:01:32.132Z,48.15
2023-04-24T07:03:58.770Z,48.09
2023-04-24T07:06:26.606Z,47.36
2023-04-24T07:08:53.735Z,46.85
2023-04-24T07:11:21.374Z,47.18
2023-04-24T07:13:48.814Z,47.09
2023-04-24T07:16:15.604Z,46.85
2023-04-24T07:18:42.216Z,47.01
2023-04-24T07:21:09.485Z,46.62
2023-04-24T07:23:36.267Z,46.58
2023-04-24T07:26:03.311Z,47.20
2023-04-24T07:28:32.181Z,46.86
2023-04-24T07:30:59.706Z,48.95
2023-04-24T07:33:26.634Z,47.68
2023-04-24T07:35:53.525Z,46.81
2023-04-24T07:38:23.156Z,46.61
2023-04-24T07:40:50.520Z,47.79
2023-04-24T07:43:17.635Z,47.74
2023-04-24T07:45:44.758Z,48.37
2023-04-24T07:48:11.674Z,47.71
2023-04-24T07:50:38.557Z,48.45
2023-04-24T07:53:05.385Z,46.91
2023-04-24T07:55:32.414Z,47.03
2023-04-24T07:58:00.236Z,47.91
2023-04-24T08:00:26.694Z,48.26
2023-04-24T08:02:53.657Z,47.96
2023-04-24T08:05:21.764Z,47.51
2023-04-24T08:07:49.921Z,48.26
2023-04-24T08:10:17.934Z,49.09
2023-04-24T08:12:44.586Z,48.09
2023-04-24T08:15:12.637Z,47.34
2023-04-24T08:17:39.496Z,45.76
2023-04-24T08:20:07.018Z,46.58
2023-04-24T08:22:34.156Z,46.39
2023-04-24T08:25:01.149Z,45.44
2023-04-24T08:27:29.613Z,45.68
2023-04-24T08:29:56.576Z,45.38
2023-04-24T08:32:23.391Z,44.98
2023-04-24T08:34:53.601Z,45.92
2023-04-24T08:37:20.261Z,46.50
2023-04-24T08:39:46.671Z,46.94
2023-04-24T08:42:14.243Z,46.73
2023-04-24T08:44:41.080Z,47.21
2023-04-24T08:47:09.981Z,47.63
2023-04-24T08:49:37.261Z,47.19
2023-04-24T08:52:03.860Z,47.53
2023-04-24T08:54:30.991Z,46.27
2023-04-24T08:57:02.334Z,47.39
2023-04-24T08:59:29.928Z,46.28
2023-04-24T09:01:58.295Z,46.13
2023-04-24T09:04:28.671Z,46.90
2023-04-24T09:06:57.356Z,45.72
2023-04-24T09:09:24.769Z,46.28
2023-04-24T09:11:52.359Z,46.41
2023-04-24T09:14:21.371Z,46.07
2023-04-24T09:16:48.592Z,46.60
2023-04-24T09:19:15.572Z,45.76
2023-04-24T09:21:45.735Z,44.81
2023-04-24T09:24:18.624Z,46.25
2023-04-24T09:26:45.572Z,46.32
2023-04-24T09:29:16.866Z,46.23
2023-04-24T09:31:43.895Z,45.05
2023-04-24T09:34:10.983Z,45.27
2023-04-24T09:36:39.075Z,45.11
2023-04-24T09:39:06.595Z,45.34
2023-04-24T09:41:33.730Z,45.07
2023-04-24T09:44:12.197Z,46.33
2023-04-24T09:46:38.894Z,44.95
2023-04-24T09:49:09.641Z,46.01
2023-04-24T09:51:40.088Z,45.83
2023-04-24T09:54:16.864Z,44.84
2023-04-24T09:56:45.622Z,44.18
2023-04-24T09:59:13.185Z,43.77
2023-04-24T10:01:42.900Z,44.82
2023-04-24T10:04:16.780Z,45.39
2023-04-24T10:06:43.709Z,45.06
2023-04-24T10:09:13.080Z,44.52
2023-04-24T10:11:42.673Z,45.03
2023-04-24T10:14:12.163Z,45.37
2023-04-24T10:16:40.618Z,44.50
2023-04-24T10:19:08.397Z,44.91
2023-04-24T10:21:40.110Z,45.05
2023-04-24T10:24:08.447Z,45.28
2023-04-24T10:26:35.957Z,44.60
2023-04-24T10:29:02.916Z,46.10
2023-04-24T10:31:33.292Z,46.00
2023-04-24T10:34:01.730Z,44.95
2023-04-24T10:36:33.384Z,44.67
2023-04-24T10:39:00.922Z,44.79
2023-04-24T10:41:27.855Z,44.13
2023-04-24T10:44:09.327Z,43.01
2023-04-24T10:46:36.051Z,41.90
2023-04-24T10:49:09.786Z,42.73
2023-04-24T10:51:54.380Z,41.74
2023-04-24T10:54:25.117Z,43.59
2023-04-24T10:56:52.787Z,43.42
2023-04-24T10:59:26.557Z,45.13
2023-04-24T11:01:56.759Z,46.42
2023-04-24T11:04:33.495Z,46.26
2023-04-24T11:07:01.375Z,45.62
2023-04-24T11:09:29.668Z,45.74
2023-04-24T11:12:10.167Z,45.60
2023-04-24T11:14:55.965Z,45.14
2023-04-24T11:17:36.165Z,45.04
2023-04-24T11:20:25.730Z,45.51
2023-04-24T11:22:58.656Z,45.79
2023-04-24T11:25:26.027Z,45.61
2023-04-24T11:28:04.186Z,46.07
2023-04-24T11:30:31.141Z,46.78
2023-04-24T11:33:03.295Z,46.80
2023-04-24T11:35:32.012Z,46.15
2023-04-24T11:40:29.609Z,46.09
2023-04-24T11:42:56.797Z,45.77
2023-04-24T11:45:24.732Z,44.98
2023-04-24T11:47:53.122Z,42.77
2023-04-24T11:50:20.866Z,42.51
2023-04-24T11:52:48.462Z,43.61
2023-04-24T11:55:15.327Z,43.31
2023-04-24T11:57:49.292Z,42.78
2023-04-24T12:00:23.028Z,41.09
2023-04-24T12:02:51.084Z,42.08
2023-04-24T12:05:22.702Z,42.03
2023-04-24T12:07:50.370Z,43.95
2023-04-24T12:10:21.790Z,43.17
2023-04-24T12:12:51.289Z,44.56
2023-04-24T12:15:18.900Z,44.76
2023-04-24T12:17:45.982Z,44.28
2023-04-24T12:20:13.376Z,43.49
2023-04-24T12:22:55.799Z,43.74
2023-04-24T12:25:26.822Z,43.04
2023-04-24T12:28:05.998Z,42.76
2023-04-24T12:30:34.398Z,42.38
2023-04-24T12:33:04.540Z,42.27
2023-04-24T12:35:36.573Z,41.82
2023-04-24T12:38:07.480Z,41.99
2023-04-24T12:40:34.214Z,42.60
2023-04-24T12:43:00.930Z,42.42
2023-04-24T12:45:29.303Z,42.22
2023-04-24T12:47:56.281Z,42.86
2023-04-24T12:50:23.129Z,42.15
2023-04-24T12:52:50.849Z,41.42
2023-04-24T12:55:17.452Z,40.88
2023-04-24T12:57:44.109Z,40.96
2023-04-24T13:00:10.995Z,40.52
2023-04-24T13:02:38.449Z,40.55
2023-04-24T13:05:05.550Z,40.63
2023-04-24T13:07:32.489Z,41.09
2023-04-24T13:09:59.848Z,41.25
2023-04-24T13:12:27.345Z,42.08
2023-04-24T13:14:54.252Z,42.99
2023-04-24T13:17:21.224Z,42.51
2023-04-24T13:19:47.795Z,42.99
2023-04-24T13:22:14.971Z,41.72
2023-04-24T13:24:42.597Z,42.44
2023-04-24T13:27:09.968Z,43.46
2023-04-24T13:29:37.154Z,43.32
2023-04-24T13:32:04.013Z,43.92
2023-04-24T13:34:31.567Z,45.46
2023-04-24T13:36:59.323Z,45.30
2023-04-24T13:39:26.796Z,45.28
2023-04-24T13:41:54.368Z,45.06
2023-04-24T13:44:22.675Z,45.88
2023-04-24T13:46:50.914Z,45.83
2023-04-24T13:49:17.947Z,46.94
2023-04-24T13:51:45.149Z,48.76
2023-04-24T13:54:12.141Z,50.85
2023-04-24T13:56:39.896Z,52.07
2023-04-24T13:59:06.602Z,51.86
2023-04-24T14:01:34.933Z,50.78
2023-04-24T14:04:03.332Z,49.70
2023-04-24T14:06:30.470Z,51.54
2023-04-24T14:08:57.428Z,50.27
2023-04-24T14:11:24.556Z,50.48
2023-04-24T14:13:51.760Z,51.58
2023-04-24T14:16:18.669Z,50.50
2023-04-24T14:18:45.610Z,50.71
2023-04-24T14:21:13.686Z,51.49
2023-04-24T14:23:41.753Z,50.30
2023-04-24T14:26:08.863Z,49.99
2023-04-24T14:28:35.500Z,49.24
2023-04-24T14:31:03.180Z,49.01
2023-04-24T14:33:30.169Z,48.89
2023-04-24T14:35:56.948Z,49.37
2023-04-24T14:38:23.572Z,50.39
2023-04-24T14:41:05.655Z,51.15
2023-04-24T14:43:33.751Z,51.42
2023-04-24T14:46:00.536Z,51.21
2023-04-24T14:48:27.291Z,50.63
2023-04-24T14:50:54.471Z,49.81
2023-04-24T14:53:21.667Z,50.01
2023-04-24T14:55:48.529Z,50.59
2023-04-24T14:58:16.696Z,49.52
2023-04-24T15:00:43.534Z,49.69
2023-04-24T15:03:11.472Z,49.95
2023-04-24T15:05:38.954Z,48.84
2023-04-24T15:08:06.254Z,48.03
2023-04-24T15:10:33.434Z,48.16
2023-04-24T15:13:00.479Z,48.50
2023-04-24T15:15:27.965Z,51.51
2023-04-24T15:17:55.103Z,53.70
2023-04-24T15:20:22.510Z,59.78
2023-04-24T15:22:49.825Z,62.50
2023-04-24T15:25:16.784Z,65.36
2023-04-24T15:27:49.631Z,66.84
2023-04-24T15:30:16.904Z,69.53
2023-04-24T15:32:58.922Z,70.88
2023-04-24T15:35:25.889Z,66.54
2023-04-24T15:37:53.917Z,67.88
2023-04-24T15:40:20.769Z,69.58
2023-04-24T15:42:47.929Z,67.09
2023-04-24T15:45:15.455Z,71.08
2023-04-24T15:47:43.107Z,71.90
2023-04-24T15:50:14.335Z,68.98
2023-04-24T15:52:42.464Z,68.58
2023-04-24T15:55:11.874Z,67.83
2023-04-24T15:57:39.384Z,66.54
2023-04-24T16:00:07.518Z,66.80
2023-04-24T16:02:34.446Z,66.16
2023-04-24T16:05:02.141Z,68.91
2023-04-24T16:07:30.466Z,71.88
2023-04-24T16:09:57.516Z,78.66
2023-04-24T16:12:28.304Z,76.21
2023-04-24T16:14:55.963Z,73.69
2023-04-24T16:17:28.033Z,77.53
2023-04-24T16:19:58.032Z,73.70
2023-04-24T16:22:28.315Z,75.45
2023-04-24T16:24:55.693Z,79.51
2023-04-24T16:27:22.330Z,77.69
2023-04-24T16:29:49.519Z,74.72
2023-04-24T16:32:16.542Z,76.31
2023-04-24T16:34:43.491Z,75.67
2023-04-24T16:37:10.651Z,77.19
2023-04-24T16:39:38.781Z,78.00
2023-04-24T16:42:06.861Z,78.28
2023-04-24T16:44:33.952Z,75.11
2023-04-24T16:47:01.106Z,72.29
2023-04-24T16:49:31.291Z,74.46
2023-04-24T16:51:58.197Z,74.08
2023-04-24T16:54:28.192Z,75.35
2023-04-24T16:56:55.772Z,73.60
2023-04-24T16:59:23.409Z,71.85
2023-04-24T17:01:50.256Z,72.68
2023-04-24T17:04:18.702Z,72.55
2023-04-24T17:06:48.608Z,72.96
2023-04-24T17:09:16.146Z,75.42
2023-04-24T17:11:43.138Z,75.03
2023-04-24T17:14:09.660Z,73.49
2023-04-24T17:16:37.814Z,74.79
2023-04-24T17:19:05.883Z,70.77
2023-04-24T17:21:33.042Z,71.01
2023-04-24T17:23:59.989Z,70.24
2023-04-24T17:26:26.574Z,71.19
2023-04-24T17:28:55.143Z,69.85
2023-04-24T17:31:21.845Z,68.22
2023-04-24T17:33:48.626Z,70.45
2023-04-24T17:36:15.179Z,69.88
2023-04-24T17:38:41.516Z,68.87
2023-04-24T17:41:08.222Z,68.65
2023-04-24T17:43:34.964Z,69.23
2023-04-24T17:46:02.491Z,70.25
2023-04-24T17:48:38.311Z,72.79
2023-04-24T17:51:04.663Z,71.08
2023-04-24T17:53:32.118Z,70.88
2023-04-24T17:56:01.995Z,70.74
2023-04-24T17:58:29.392Z,69.10
2023-04-24T18:00:56.146Z,69.38
2023-04-24T18:03:23.197Z,71.64
2023-04-24T18:05:49.765Z,70.17
2023-04-24T18:08:16.356Z,68.57
2023-04-24T18:10:44.982Z,71.74
2023-04-24T18:13:12.069Z,71.84
2023-04-24T18:15:42.999Z,71.43
2023-04-24T18:18:11.054Z,70.10
2023-04-24T18:20:38.877Z,71.22
2023-04-24T18:23:07.309Z,72.06
2023-04-24T18:25:33.912Z,72.87
2023-04-24T18:28:00.643Z,71.02
2023-04-24T18:30:28.145Z,73.67
2023-04-24T18:32:54.945Z,72.27
2023-04-24T18:35:22.140Z,71.54
2023-04-24T18:37:49.554Z,74.06
2023-04-24T18:40:16.600Z,74.69
2023-04-24T18:42:43.749Z,77.55
2023-04-24T18:45:13.800Z,76.43
2023-04-24T18:47:43.258Z,78.02
2023-04-24T18:50:12.803Z,80.23
2023-04-24T18:52:40.293Z,77.87
2023-04-24T18:55:07.584Z,78.78
2023-04-24T18:57:35.771Z,76.66
2023-04-24T19:00:03.369Z,79.60
2023-04-24T19:02:31.788Z,77.58
2023-04-24T19:04:59.810Z,79.06
2023-04-24T19:07:29.513Z,81.28
2023-04-24T19:09:56.904Z,78.63
2023-04-24T19:12:30.657Z,76.27
2023-04-24T19:15:03.074Z,80.13
2023-04-24T19:17:32.103Z,80.22
2023-04-24T19:19:59.759Z,77.10
2023-04-24T19:22:31.411Z,75.89
2023-04-24T19:25:01.451Z,74.64
2023-04-24T19:27:28.489Z,75.50
2023-04-24T19:29:58.577Z,76.28
2023-04-24T19:32:28.881Z,76.13
2023-04-24T19:34:58.606Z,74.16
2023-04-24T19:37:29.240Z,76.29
2023-04-24T19:40:03.528Z,76.89
2023-04-24T19:42:43.388Z,74.39
2023-04-24T19:45:14.012Z,75.30
2023-04-24T19:47:41.867Z,72.11
2023-04-24T19:50:18.314Z,72.25
2023-04-24T19:52:51.235Z,73.72
2023-04-24T19:55:21.403Z,73.06
2023-04-24T19:57:53.886Z,73.96
2023-04-24T20:00:24.213Z,73.39
2023-04-24T20:02:54.727Z,72.61
2023-04-24T20:05:21.815Z,72.41
2023-04-24T20:07:51.251Z,70.13
2023-04-24T20:10:31.113Z,71.23
2023-04-24T20:12:58.050Z,71.49
2023-04-24T20:15:24.769Z,74.15
2023-04-24T20:17:51.740Z,72.95
2023-04-24T20:20:18.522Z,72.46
2023-04-24T20:22:46.896Z,70.72
2023-04-24T20:25:15.347Z,74.48
2023-04-24T20:27:42.834Z,73.91
2023-04-24T20:30:13.372Z,73.30
2023-04-24T20:32:42.044Z,75.18
2023-04-24T20:35:09.798Z,70.54
2023-04-24T20:37:37.115Z,74.07
2023-04-24T20:40:06.985Z,76.11
2023-04-24T20:42:34.421Z,72.78
2023-04-24T20:45:02.015Z,74.68
2023-04-24T20:47:28.855Z,77.27
2023-04-24T20:49:55.963Z,76.07
2023-04-24T20:52:22.590Z,72.29
2023-04-24T20:54:49.924Z,73.69
2023-04-24T20:57:16.929Z,77.05
2023-04-24T20:59:43.721Z,76.76
2023-04-24T21:02:12.059Z,73.65
2023-04-24T21:04:39.806Z,72.71
2023-04-24T21:07:07.130Z,73.53
2023-04-24T21:09:35.387Z,72.71
2023-04-24T21:12:04.087Z,72.54
2023-04-24T21:14:31.402Z,74.12
2023-04-24T21:17:00.321Z,71.81
2023-04-24T21:19:27.718Z,70.61
2023-04-24T21:21:55.065Z,71.28
2023-04-24T21:24:23.019Z,73.54
2023-04-24T21:26:51.719Z,74.54
2023-04-24T21:29:19.009Z,72.83
2023-04-24T21:31:47.478Z,70.96
2023-04-24T21:34:16.213Z,73.81
2023-04-24T21:36:43.793Z,72.42
2023-04-24T21:39:11.350Z,72.58
2023-04-24T21:41:38.553Z,71.00
2023-04-24T21:44:06.101Z,70.95
2023-04-24T21:46:34.087Z,71.54
2023-04-24T21:49:02.579Z,70.01
2023-04-24T21:51:29.520Z,68.63
2023-04-24T21:53:56.732Z,69.30
2023-04-24T21:56:23.985Z,71.46
2023-04-24T21:58:50.785Z,69.10
2023-04-24T22:01:17.287Z,70.11
2023-04-24T22:03:43.809Z,73.86
2023-04-24T22:06:10.763Z,69.11
2023-04-24T22:08:38.738Z,69.56
2023-04-24T22:11:13.528Z,70.27
2023-04-24T22:13:47.278Z,70.93
2023-04-24T22:16:14.951Z,72.56
2023-04-24T22:18:47.522Z,71.97
2023-04-24T22:21:14.832Z,71.83
2023-04-24T22:23:42.261Z,72.62
2023-04-24T22:26:08.679Z,71.96
2023-04-24T22:28:35.693Z,72.30
2023-04-24T22:31:02.723Z,70.38
2023-04-24T22:33:30.582Z,72.89
2023-04-24T22:35:57.810Z,73.83
2023-04-24T22:38:26.858Z,76.52
2023-04-24T22:40:54.109Z,74.63
2023-04-24T22:43:20.952Z,74.86
2023-04-24T22:45:47.775Z,77.37
2023-04-24T22:48:14.281Z,77.22
2023-04-24T22:50:42.095Z,75.92
2023-04-24T22:53:09.537Z,77.08
2023-04-24T22:55:36.441Z,77.75
2023-04-24T22:58:04.071Z,79.36
2023-04-24T23:00:31.262Z,77.69
2023-04-24T23:02:59.384Z,77.16
2023-04-24T23:05:26.939Z,80.01
2023-04-24T23:07:55.167Z,76.71
2023-04-24T23:10:23.233Z,74.70
2023-04-24T23:12:49.838Z,76.88
2023-04-24T23:15:16.797Z,80.66
2023-04-24T23:17:43.600Z,78.24
2023-04-24T23:20:14.467Z,77.51
2023-04-24T23:22:41.916Z,77.61
2023-04-24T23:25:10.273Z,78.46
2023-04-24T23:27:37.950Z,76.33
2023-04-24T23:30:08.256Z,75.36
2023-04-24T23:32:34.926Z,75.21
2023-04-24T23:35:02.489Z,74.56
2023-04-24T23:37:29.215Z,73.29
2023-04-24T23:39:56.228Z,75.27
2023-04-24T23:42:23.468Z,74.56
2023-04-24T23:44:51.212Z,73.48
2023-04-24T23:47:18.245Z,72.76
2023-04-24T23:49:45.063Z,75.66
2023-04-24T23:52:12.038Z,74.59
2023-04-24T23:54:39.977Z,72.49
2023-04-24T23:57:06.820Z,73.78
2023-04-24T23:59:33.375Z,72.21
